HSS weather

Hissar Airport
Haryana, India

Public forecast

Using degrees Celsius for public forecast. Weather courtesy of forecast.io.

Closest aviation weather report (METAR) to Hissar Airport

Closest report is Indira Gandhi International Airport, 79.8 nm (147.9 km) ESE. Retrieved 2019/12/10 01:30 UTC (19 minutes ago):

VIDP 100130Z 00000KT 0300 R28/P2000 R29/2000 FG NSC 11/09 Q1016 TEMPO 0150 FG

Closest aviation forecast (TAF) to Hissar Airport

Closest forecast is Indira Gandhi International Airport, 79.8 nm (147.9 km) ESE. Retrieved 2019-12-10 00:00 UTC (2 hours ago):

TAF VIDP 092300Z 1000/1106 00000KT 0400 FG FEW100 BECMG 1004/1006 27005KT 1200 BR FU BECMG 1009/1011 32006KT 2500 HZ SCT100 BECMG 1015/1017 VRB02KT 1500 BR FU BECMG 1022/1023 00000KT 0800 MIFG FEW100 BECMG 1100/1102 0300 FG BECMG 1104/1105 29005KT 0800 MIFG SCT100